This is the latest recevied weather packets stored in our database for station/object GBTWP-2. If no packets are shown the sender has not sent any weather packets the latest 10 day(s).
| Time | Temp. | Humidity | Pressure | Rain* | Wind** | Luminosity | Snow |
|---|---|---|---|---|---|---|---|
| 1787515619 | 20.56° C | 65% | 1014.5 hPa | 0 mm | - | 74 W/m² | - |
| 1787515319 | 21.67° C | 61% | 1014.4 hPa | 0 mm | - | 72 W/m² | - |
| 1787515019 | 22.22° C | 56% | 1014.5 hPa | 0 mm | - | 110 W/m² | - |
| 1787514720 | 22.22° C | 55% | 1014.6 hPa | 0 mm | - | 116 W/m² | - |
| 1787514420 | 21.67° C | 57% | 1014.4 hPa | 0 mm | - | 108 W/m² | - |
| 1787514120 | 22.22° C | 56% | 1014.3 hPa | 0 mm | - | 134 W/m² | - |
| 1787513819 | 22.78° C | 54% | 1014.2 hPa | 0 mm | - | 183 W/m² | - |
| 1787513520 | 23.33° C | 53% | 1014.5 hPa | 0 mm | - | 426 W/m² | - |
| 1787513220 | 22.78° C | 55% | 1014.5 hPa | 0 mm | - | 303 W/m² | - |
| 1787512920 | 23.33° C | 50% | 1014.4 hPa | 0 mm | - | 624 W/m² | - |
| 1787512618 | 22.78° C | 53% | 1014.6 hPa | 0 mm | - | 650 W/m² | - |
| 1787512319 | 22.22° C | 53% | 1014.5 hPa | 0 mm | - | 723 W/m² | - |
| 1787512020 | 21.67° C | 54% | 1014.6 hPa | 0 mm | - | 184 W/m² | - |
| 1787511719 | 21.67° C | 54% | 1014.8 hPa | 0 mm | - | 166 W/m² | - |
| 1787511420 | 22.22° C | 54% | 1014.7 hPa | 0 mm | - | 94 W/m² | - |
| 1787511119 | 22.78° C | 53% | 1014.7 hPa | 0 mm | - | 155 W/m² | - |
| 1787510820 | 22.78° C | 55% | 1014.9 hPa | 0 mm | - | 740 W/m² | - |
| 1787510519 | 21.67° C | 55% | 1014.7 hPa | 0 mm | - | 684 W/m² | - |
| 1787510220 | 22.22° C | 56% | 1015 hPa | 0 mm | - | 697 W/m² | - |
| 1787509920 | 22.22° C | 55% | 1015.1 hPa | 0 mm | - | 212 W/m² | - |
| 1787509620 | 22.22° C | 55% | 1015 hPa | 0 mm | - | 391 W/m² | - |
| 1787509320 | 21.11° C | 59% | 1015.3 hPa | 0 mm | - | 677 W/m² | - |
| 1787509018 | 21.11° C | 60% | 1015.1 hPa | 0 mm | - | 210 W/m² | - |
| 1787508719 | 21.11° C | 59% | 1015.1 hPa | 0 mm | - | 61 W/m² | - |
| 1787508420 | 21.67° C | 57% | 1015 hPa | 0 mm | - | 89 W/m² | - |
* Rain latest hour (hover to see other rain measurements)
** Current wind speed in m/s (hover to see current wind gust speed)